CNF3 weather

Pendleton Airport
Pendleton, Ontario, Canada

Public forecast

Using degrees Celsius for public forecast. Weather courtesy of forecast.io.

Closest aviation weather report (METAR) to Pendleton Airport

Report is more than 2 hours old.

Closest report is Ottawa / Gatineau Airport, 19.8 nm (36.6 km) W. Retrieved 2020/01/18 02:00 UTC (3 hours ago):

CYND 180200Z 32004KT 15SM SKC M20/M23 A3078 RMK LAST STFD OBS/NEXT 181200 UTC SLP431

Closest aviation forecast (TAF) to Pendleton Airport

Closest forecast is Ottawa / Gatineau Airport, 19.8 nm (36.6 km) W. Retrieved 2020-01-18 00:00 UTC (5 hours ago):

TAF CYND 172338Z 1800/1802 26007KT P6SM FEW200 BECMG 1800/1802 VRB03KT RMK NXT FCST WILL BE ISSUED AT 181345Z